createdAt,value
2019-03-19T00:00:05.814Z,77.50
2019-03-19T00:01:05.826Z,76.98
2019-03-19T00:02:05.796Z,77.29
2019-03-19T00:03:05.783Z,77.50
2019-03-19T00:04:05.773Z,77.92
2019-03-19T00:05:05.759Z,77.23
2019-03-19T00:06:05.809Z,78.06
2019-03-19T00:07:05.732Z,77.50
2019-03-19T00:08:05.732Z,77.95
2019-03-19T00:09:05.737Z,78.16
2019-03-19T00:10:05.715Z,78.58
2019-03-19T00:11:05.709Z,78.68
2019-03-19T00:12:05.718Z,77.58
2019-03-19T00:13:05.675Z,78.47
2019-03-19T00:14:05.667Z,78.68
2019-03-19T00:15:05.649Z,77.44
2019-03-19T00:16:05.794Z,78.37
2019-03-19T00:17:05.660Z,78.51
2019-03-19T00:18:05.618Z,78.58
2019-03-19T00:19:05.600Z,78.78
2019-03-19T00:20:05.588Z,78.58
2019-03-19T00:21:05.639Z,78.58
2019-03-19T00:22:05.565Z,78.58
2019-03-19T00:23:05.560Z,78.16
2019-03-19T00:24:05.555Z,77.75
2019-03-19T00:25:05.534Z,77.44
2019-03-19T00:26:05.528Z,77.95
2019-03-19T00:27:05.532Z,77.75
2019-03-19T00:28:05.506Z,77.02
2019-03-19T00:29:05.495Z,77.54
2019-03-19T00:30:05.477Z,77.75
2019-03-19T00:31:05.480Z,78.06
2019-03-19T00:32:05.608Z,77.95
2019-03-19T00:33:05.447Z,78.16
2019-03-19T00:34:05.436Z,78.06
2019-03-19T00:35:05.426Z,77.44
2019-03-19T00:36:05.433Z,77.95
2019-03-19T00:37:05.404Z,77.54
2019-03-19T00:38:05.418Z,77.71
2019-03-19T00:39:05.454Z,77.29
2019-03-19T00:40:05.374Z,77.19
2019-03-19T00:41:05.357Z,77.54
2019-03-19T00:42:05.348Z,77.29
2019-03-19T00:43:05.347Z,77.33
2019-03-19T00:44:05.326Z,77.33
2019-03-19T00:45:05.347Z,77.02
2019-03-19T00:46:05.307Z,77.23
2019-03-19T00:47:05.293Z,77.29
2019-03-19T00:48:05.278Z,77.44
2019-03-19T00:49:06.789Z,77.50
2019-03-19T00:50:05.307Z,77.23
2019-03-19T00:51:05.244Z,77.33
2019-03-19T00:52:05.234Z,77.33
2019-03-19T00:53:05.257Z,76.71
2019-03-19T00:54:05.217Z,77.12
2019-03-19T00:55:05.232Z,76.92
2019-03-19T00:56:05.202Z,77.47
2019-03-19T00:57:05.182Z,77.33
2019-03-19T00:58:05.191Z,77.26
2019-03-19T00:59:05.182Z,77.54
2019-03-19T01:00:05.152Z,77.26
2019-03-19T01:01:05.170Z,77.16
2019-03-19T01:02:05.131Z,77.37
2019-03-19T01:03:05.110Z,77.58
2019-03-19T01:04:05.105Z,77.47
2019-03-19T01:05:05.091Z,77.26
2019-03-19T01:06:05.127Z,77.44
2019-03-19T01:07:05.072Z,77.58
2019-03-19T01:08:05.061Z,77.89
2019-03-19T01:09:05.049Z,77.78
2019-03-19T01:10:05.040Z,77.72
2019-03-19T01:11:05.046Z,78.09
2019-03-19T01:12:05.033Z,77.99
2019-03-19T01:13:05.113Z,78.09
2019-03-19T01:14:05.045Z,77.72
2019-03-19T01:15:04.977Z,77.89
2019-03-19T01:16:04.971Z,77.92
2019-03-19T01:17:04.978Z,78.13
2019-03-19T01:18:04.950Z,77.99
2019-03-19T01:19:04.946Z,77.99
2019-03-19T01:20:04.935Z,77.47
2019-03-19T01:21:04.925Z,78.34
2019-03-19T01:22:04.956Z,78.75
2019-03-19T01:23:04.889Z,78.86
2019-03-19T01:24:04.887Z,78.55
2019-03-19T01:25:04.883Z,78.75
2019-03-19T01:26:04.860Z,78.75
2019-03-19T01:27:04.846Z,78.34
2019-03-19T01:28:04.855Z,78.55
2019-03-19T01:29:04.828Z,78.82
2019-03-19T01:30:04.812Z,78.61
2019-03-19T01:31:04.797Z,78.51
2019-03-19T01:32:04.817Z,78.23
2019-03-19T01:33:04.811Z,78.72
2019-03-19T01:34:04.775Z,78.96
2019-03-19T01:35:04.757Z,78.82
2019-03-19T01:36:04.772Z,78.44
2019-03-19T01:37:04.731Z,78.61
2019-03-19T01:38:04.758Z,78.13
2019-03-19T01:39:04.708Z,78.03
2019-03-19T01:40:04.697Z,78.51
2019-03-19T01:41:04.698Z,78.51
2019-03-19T01:42:04.688Z,78.51
2019-03-19T01:43:04.668Z,78.61
2019-03-19T01:44:04.682Z,78.30
2019-03-19T01:45:04.646Z,78.34
2019-03-19T01:46:04.638Z,77.89
2019-03-19T01:47:04.629Z,78.41
2019-03-19T01:48:04.609Z,77.68
2019-03-19T01:49:04.661Z,77.99
2019-03-19T01:50:04.602Z,77.99
2019-03-19T01:51:04.591Z,77.99
2019-03-19T01:52:04.568Z,78.20
2019-03-19T01:53:04.567Z,77.26
2019-03-19T01:54:04.570Z,77.89
2019-03-19T01:55:04.666Z,77.89
2019-03-19T01:56:05.519Z,77.06
2019-03-19T01:57:04.518Z,77.58
2019-03-19T01:58:04.496Z,78.09
2019-03-19T01:59:04.489Z,76.95
2019-03-19T02:00:04.483Z,77.26
2019-03-19T02:01:04.507Z,77.23
2019-03-19T02:02:04.459Z,76.61
2019-03-19T02:03:04.440Z,76.64
2019-03-19T02:04:04.431Z,76.61
2019-03-19T02:05:04.426Z,76.95
2019-03-19T02:06:04.427Z,76.81
2019-03-19T02:07:04.417Z,76.75
2019-03-19T02:08:04.394Z,76.43
2019-03-19T02:09:04.378Z,76.61
2019-03-19T02:10:04.366Z,76.54
2019-03-19T02:11:04.382Z,76.43
2019-03-19T02:12:04.339Z,76.54
2019-03-19T02:13:04.335Z,76.71
2019-03-19T02:14:04.321Z,76.54
2019-03-19T02:15:04.311Z,76.54
2019-03-19T02:16:04.315Z,76.75
2019-03-19T02:17:04.288Z,76.64
2019-03-19T02:18:04.271Z,77.06
2019-03-19T02:19:04.260Z,76.85
2019-03-19T02:20:04.259Z,76.75
2019-03-19T02:21:04.265Z,76.95
2019-03-19T02:22:04.282Z,76.75
2019-03-19T02:23:04.745Z,76.33
2019-03-19T02:24:04.206Z,76.29
2019-03-19T02:25:04.199Z,76.43
2019-03-19T02:26:04.182Z,76.54
2019-03-19T02:27:04.171Z,76.33
2019-03-19T02:28:04.204Z,76.12
2019-03-19T02:29:04.152Z,76.40
2019-03-19T02:30:04.147Z,76.54
2019-03-19T02:31:04.135Z,76.54
2019-03-19T02:32:04.122Z,76.64
2019-03-19T02:33:04.126Z,76.85
2019-03-19T02:34:04.122Z,76.75
2019-03-19T02:35:04.089Z,76.85
2019-03-19T02:36:04.075Z,76.64
2019-03-19T02:37:04.064Z,77.16
2019-03-19T02:38:04.080Z,77.37
2019-03-19T02:39:04.042Z,77.26
2019-03-19T02:40:04.050Z,77.47
2019-03-19T02:41:04.014Z,77.06
2019-03-19T02:42:04.008Z,77.47
2019-03-19T02:43:03.994Z,78.20
2019-03-19T02:44:04.014Z,78.61
2019-03-19T02:45:03.997Z,78.61
2019-03-19T02:46:03.972Z,78.51
2019-03-19T02:47:03.965Z,78.61
2019-03-19T02:48:03.956Z,79.03
2019-03-19T02:49:03.936Z,78.61
2019-03-19T02:50:03.937Z,79.24
2019-03-19T02:51:03.909Z,79.03
2019-03-19T02:52:03.893Z,79.03
2019-03-19T02:53:03.914Z,79.24
2019-03-19T02:54:03.874Z,79.38
2019-03-19T02:55:03.890Z,79.24
2019-03-19T02:56:03.962Z,79.48
2019-03-19T02:57:03.845Z,79.69
2019-03-19T02:58:03.829Z,78.96
2019-03-19T02:59:03.823Z,79.48
2019-03-19T03:00:03.865Z,79.27
2019-03-19T03:01:03.798Z,79.06
2019-03-19T03:02:03.790Z,79.13
2019-03-19T03:03:03.780Z,79.55
2019-03-19T03:04:03.772Z,79.44
2019-03-19T03:05:03.754Z,79.34
2019-03-19T03:06:03.759Z,79.58
2019-03-19T03:07:03.724Z,79.38
2019-03-19T03:08:03.716Z,79.69
2019-03-19T03:09:03.714Z,79.69
2019-03-19T03:10:03.694Z,80.00
2019-03-19T03:11:03.725Z,79.90
2019-03-19T03:12:03.669Z,80.10
2019-03-19T03:13:03.662Z,80.00
2019-03-19T03:14:03.646Z,80.00
2019-03-19T03:15:03.638Z,80.10
2019-03-19T03:16:03.679Z,80.31
2019-03-19T03:17:03.619Z,80.10
2019-03-19T03:18:03.609Z,80.00
2019-03-19T03:19:03.599Z,80.21
2019-03-19T03:20:03.612Z,80.83
2019-03-19T03:21:03.615Z,80.83
2019-03-19T03:22:03.601Z,80.93
2019-03-19T03:23:03.549Z,80.55
2019-03-19T03:24:03.566Z,80.76
2019-03-19T03:25:03.525Z,80.41
2019-03-19T03:26:03.536Z,80.73
2019-03-19T03:27:03.666Z,80.97
2019-03-19T03:28:03.522Z,80.87
2019-03-19T03:29:03.490Z,81.07
2019-03-19T03:30:03.476Z,80.87
2019-03-19T03:31:03.462Z,80.76
2019-03-19T03:32:03.476Z,80.66
2019-03-19T03:33:03.448Z,80.55
2019-03-19T03:34:03.427Z,81.07
2019-03-19T03:35:03.424Z,81.70
2019-03-19T03:36:03.402Z,81.49
2019-03-19T03:37:03.450Z,81.59
2019-03-19T03:38:03.383Z,81.70
2019-03-19T03:39:03.370Z,81.80
2019-03-19T03:40:03.383Z,81.59
2019-03-19T03:41:03.354Z,81.38
2019-03-19T03:42:03.357Z,81.49
2019-03-19T03:43:03.359Z,81.59
2019-03-19T03:44:03.321Z,81.56
2019-03-19T03:45:03.305Z,81.70
2019-03-19T03:46:03.297Z,81.90
2019-03-19T03:47:03.287Z,81.90
2019-03-19T03:48:03.324Z,80.76
2019-03-19T03:49:03.270Z,81.70
2019-03-19T03:50:03.249Z,81.90
2019-03-19T03:51:03.238Z,81.90
2019-03-19T03:52:03.224Z,81.59
2019-03-19T03:53:03.220Z,81.59
2019-03-19T03:54:03.224Z,81.80
2019-03-19T03:55:03.225Z,82.01
2019-03-19T03:56:03.179Z,81.04
2019-03-19T03:57:03.187Z,80.83
2019-03-19T03:58:03.189Z,80.52
2019-03-19T03:59:03.185Z,80.93
2019-03-19T04:00:03.133Z,80.73
2019-03-19T04:01:03.127Z,80.66
2019-03-19T04:02:03.120Z,80.45
2019-03-19T04:03:03.105Z,80.52
2019-03-19T04:04:03.101Z,80.52
2019-03-19T04:05:03.131Z,80.45
2019-03-19T04:06:03.077Z,80.52
2019-03-19T04:07:03.082Z,80.21
2019-03-19T04:08:03.044Z,80.45
2019-03-19T04:09:03.034Z,80.55
2019-03-19T04:10:03.043Z,80.45
2019-03-19T04:11:03.100Z,80.45
2019-03-19T04:12:03.005Z,80.73
2019-03-19T04:13:03.006Z,80.55
2019-03-19T04:14:02.986Z,80.14
2019-03-19T04:15:02.967Z,80.24
2019-03-19T04:16:02.964Z,80.10
2019-03-19T04:17:02.991Z,80.04
2019-03-19T04:18:02.938Z,80.24
2019-03-19T04:19:02.936Z,80.45
2019-03-19T04:20:02.915Z,80.87
2019-03-19T04:21:02.927Z,80.14
2019-03-19T04:22:02.897Z,80.41
2019-03-19T04:23:02.944Z,80.35
2019-03-19T04:24:02.877Z,80.00
2019-03-19T04:25:02.863Z,80.04
2019-03-19T04:26:02.886Z,80.10
2019-03-19T04:27:15.484Z,80.41
2019-03-19T04:28:03.833Z,80.21
2019-03-19T04:29:02.820Z,79.90
2019-03-19T04:30:02.805Z,80.21
2019-03-19T04:31:02.793Z,79.79
2019-03-19T04:32:02.822Z,79.79
2019-03-19T04:33:02.869Z,79.30
2019-03-19T04:34:02.759Z,79.79
2019-03-19T04:35:02.747Z,79.79
2019-03-19T04:36:02.741Z,79.79
2019-03-19T04:37:02.728Z,79.69
2019-03-19T04:38:02.768Z,79.58
2019-03-19T04:39:02.704Z,79.58
2019-03-19T04:40:02.699Z,79.61
2019-03-19T04:41:02.681Z,79.58
2019-03-19T04:42:02.672Z,79.48
2019-03-19T04:43:02.664Z,79.79
2019-03-19T04:44:02.666Z,79.06
2019-03-19T04:45:02.636Z,79.58
2019-03-19T04:46:02.626Z,79.17
2019-03-19T04:47:02.664Z,79.20
2019-03-19T04:48:03.718Z,79.58
2019-03-19T04:49:02.589Z,79.69
2019-03-19T04:50:02.575Z,79.38
2019-03-19T04:51:02.570Z,79.58
2019-03-19T04:52:02.561Z,79.93
2019-03-19T04:53:02.564Z,79.61
2019-03-19T04:54:02.580Z,79.41
2019-03-19T04:55:02.519Z,79.83
2019-03-19T04:56:02.513Z,79.38
2019-03-19T04:57:02.502Z,79.61
2019-03-19T04:58:02.536Z,79.58
2019-03-19T04:59:02.474Z,79.27
2019-03-19T05:00:02.468Z,79.48
2019-03-19T05:01:02.463Z,79.38
2019-03-19T05:02:02.445Z,79.69
2019-03-19T05:03:02.430Z,79.48
2019-03-19T05:04:02.442Z,79.58
2019-03-19T05:05:02.423Z,79.48
2019-03-19T05:06:02.405Z,79.61
2019-03-19T05:07:02.396Z,79.38
2019-03-19T05:08:02.420Z,78.96
2019-03-19T05:09:02.376Z,79.27
2019-03-19T05:10:02.350Z,79.79
2019-03-19T05:11:02.345Z,79.79
2019-03-19T05:12:02.328Z,80.00
2019-03-19T05:13:02.442Z,80.41
2019-03-19T05:14:02.306Z,80.31
2019-03-19T05:15:02.304Z,80.00
2019-03-19T05:16:02.294Z,80.00
2019-03-19T05:17:02.279Z,79.48
2019-03-19T05:18:02.266Z,79.79
2019-03-19T05:19:02.279Z,79.79
2019-03-19T05:20:02.239Z,80.00
2019-03-19T05:21:02.227Z,79.79
2019-03-19T05:22:02.226Z,80.00
2019-03-19T05:23:02.206Z,79.69
2019-03-19T05:24:02.216Z,79.58
2019-03-19T05:25:02.189Z,79.79
2019-03-19T05:26:02.172Z,79.27
2019-03-19T05:27:02.163Z,79.48
2019-03-19T05:28:02.157Z,79.79
2019-03-19T05:29:02.188Z,79.24
2019-03-19T05:30:02.138Z,79.58
2019-03-19T05:31:02.121Z,79.58
2019-03-19T05:32:02.113Z,79.85
2019-03-19T05:33:02.102Z,79.44
2019-03-19T05:34:02.100Z,79.34
2019-03-19T05:35:02.101Z,79.03
2019-03-19T05:36:02.067Z,79.69
2019-03-19T05:37:02.060Z,79.38
2019-03-19T05:38:02.056Z,79.58
2019-03-19T05:39:02.029Z,79.58
2019-03-19T05:40:02.086Z,79.44
2019-03-19T05:41:02.012Z,79.48
2019-03-19T05:42:02.003Z,79.44
2019-03-19T05:43:01.988Z,79.34
2019-03-19T05:44:01.982Z,79.69
2019-03-19T05:45:01.971Z,79.65
2019-03-19T05:46:01.985Z,79.17
2019-03-19T05:47:01.953Z,79.55
2019-03-19T05:48:01.935Z,79.34
2019-03-19T05:49:01.919Z,79.13
2019-03-19T05:50:01.910Z,79.55
2019-03-19T05:51:01.932Z,79.34
2019-03-19T05:52:01.891Z,79.24
2019-03-19T05:53:01.884Z,79.34
2019-03-19T05:54:01.865Z,79.24
2019-03-19T05:55:01.862Z,79.27
2019-03-19T05:56:01.865Z,79.27
2019-03-19T05:57:01.920Z,79.17
2019-03-19T05:58:01.825Z,79.38
2019-03-19T05:59:01.813Z,79.06
2019-03-19T06:00:01.803Z,79.27
2019-03-19T06:01:01.791Z,79.13
2019-03-19T06:02:01.805Z,79.27
2019-03-19T06:03:01.776Z,79.48
2019-03-19T06:04:01.765Z,78.75
2019-03-19T06:05:01.748Z,78.51
2019-03-19T06:06:01.736Z,79.06
2019-03-19T06:07:01.746Z,79.06
2019-03-19T06:08:01.744Z,79.38
2019-03-19T06:09:01.708Z,79.38
2019-03-19T06:10:01.696Z,78.55
2019-03-19T06:11:01.676Z,78.96
2019-03-19T06:12:01.668Z,78.65
2019-03-19T06:13:01.709Z,78.82
2019-03-19T06:14:01.644Z,78.55
2019-03-19T06:15:01.632Z,78.41
2019-03-19T06:16:01.626Z,78.61
2019-03-19T06:17:01.618Z,78.82
2019-03-19T06:18:01.605Z,78.61
2019-03-19T06:19:01.620Z,77.89
2019-03-19T06:20:01.586Z,77.99
2019-03-19T06:21:01.568Z,77.99
2019-03-19T06:22:01.562Z,78.41
2019-03-19T06:23:01.570Z,78.92
2019-03-19T06:24:01.573Z,78.51
2019-03-19T06:25:01.526Z,78.72
2019-03-19T06:26:01.516Z,78.41
2019-03-19T06:27:01.502Z,78.61
2019-03-19T06:28:01.497Z,78.51
2019-03-19T06:29:01.512Z,78.09
2019-03-19T06:30:01.481Z,77.78
2019-03-19T06:31:01.503Z,77.99
2019-03-19T06:32:01.456Z,78.20
2019-03-19T06:33:01.459Z,78.09
2019-03-19T06:34:01.556Z,78.09
2019-03-19T06:35:01.418Z,77.89
2019-03-19T06:36:01.408Z,77.75
2019-03-19T06:37:01.389Z,77.33
2019-03-19T06:38:01.381Z,77.44
2019-03-19T06:39:01.368Z,77.26
2019-03-19T06:40:01.385Z,77.54
2019-03-19T06:41:01.351Z,77.85
2019-03-19T06:42:01.335Z,77.12
2019-03-19T06:43:01.329Z,77.33
2019-03-19T06:44:01.320Z,77.23
2019-03-19T06:45:01.338Z,77.23
2019-03-19T06:46:01.297Z,77.23
2019-03-19T06:47:01.289Z,77.23
2019-03-19T06:48:01.270Z,77.12
2019-03-19T06:49:01.262Z,76.61
2019-03-19T06:50:01.274Z,77.12
2019-03-19T06:51:01.254Z,77.02
2019-03-19T06:52:01.229Z,76.61
2019-03-19T06:53:01.218Z,76.50
2019-03-19T06:54:01.206Z,76.29
2019-03-19T06:55:01.239Z,76.92
2019-03-19T06:56:01.181Z,76.81
2019-03-19T06:57:01.171Z,77.33
2019-03-19T06:58:10.497Z,76.40
2019-03-19T06:59:02.177Z,76.81
2019-03-19T07:00:01.184Z,76.61
2019-03-19T07:01:01.160Z,76.61
2019-03-19T07:02:01.116Z,76.46
2019-03-19T07:03:01.104Z,76.71
2019-03-19T07:04:01.103Z,76.81
2019-03-19T07:05:01.089Z,76.61
2019-03-19T07:06:01.098Z,76.50
2019-03-19T07:07:01.088Z,76.29
2019-03-19T07:08:01.054Z,76.57
2019-03-19T07:09:01.044Z,76.61
2019-03-19T07:10:01.035Z,77.44
2019-03-19T07:11:01.066Z,76.71
2019-03-19T07:12:01.676Z,76.81
2019-03-19T07:13:01.001Z,76.92
2019-03-19T07:14:00.988Z,76.92
2019-03-19T07:15:00.984Z,76.78
2019-03-19T07:16:00.966Z,77.19
2019-03-19T07:17:00.951Z,76.15
2019-03-19T07:18:00.966Z,76.15
2019-03-19T07:19:00.929Z,76.78
2019-03-19T07:20:00.918Z,76.36
2019-03-19T07:21:00.913Z,76.46
2019-03-19T07:22:00.938Z,76.46
2019-03-19T07:23:00.886Z,76.15
2019-03-19T07:24:00.878Z,76.32
2019-03-19T07:25:00.897Z,76.36
2019-03-19T07:26:00.852Z,75.60
2019-03-19T07:27:00.844Z,74.60
2019-03-19T07:28:00.862Z,75.32
2019-03-19T07:29:00.824Z,75.12
2019-03-19T07:30:00.805Z,75.63
2019-03-19T07:31:01.078Z,75.63
2019-03-19T07:32:00.790Z,74.91
2019-03-19T07:33:00.835Z,75.43
2019-03-19T07:34:00.767Z,75.02
2019-03-19T07:35:00.758Z,75.43
2019-03-19T07:36:00.743Z,74.77
2019-03-19T07:37:00.744Z,74.67
2019-03-19T07:38:00.740Z,74.43
2019-03-19T07:39:00.754Z,73.81
2019-03-19T07:40:00.699Z,74.36
2019-03-19T07:41:00.686Z,74.63
2019-03-19T07:42:00.694Z,73.39
2019-03-19T07:43:00.686Z,73.15
2019-03-19T07:44:00.657Z,73.25
2019-03-19T07:45:00.687Z,72.22
2019-03-19T07:46:00.626Z,71.73
2019-03-19T07:47:00.615Z,73.19
2019-03-19T07:48:00.614Z,72.98
2019-03-19T07:49:00.595Z,72.85
2019-03-19T07:50:00.581Z,72.74
2019-03-19T07:51:00.635Z,72.33
2019-03-19T07:52:00.566Z,72.53
2019-03-19T07:53:00.674Z,71.91
2019-03-19T07:54:00.546Z,71.19
2019-03-19T07:55:00.600Z,71.19
2019-03-19T07:56:00.519Z,71.39
2019-03-19T07:57:00.508Z,70.26
2019-03-19T07:58:00.491Z,70.26
2019-03-19T07:59:00.509Z,70.15
2019-03-19T08:00:00.478Z,70.15
2019-03-19T08:01:00.458Z,70.43
2019-03-19T08:02:00.450Z,69.81
2019-03-19T08:03:00.437Z,69.92
2019-03-19T08:04:00.457Z,69.84
2019-03-19T08:05:00.422Z,70.15
2019-03-19T08:06:00.410Z,69.74
2019-03-19T08:07:00.396Z,70.57
2019-03-19T08:08:00.382Z,70.57
2019-03-19T08:09:00.465Z,69.84
2019-03-19T08:10:00.357Z,69.95
2019-03-19T08:11:00.352Z,70.36
2019-03-19T08:12:00.365Z,70.05
2019-03-19T08:13:00.329Z,70.01
2019-03-19T08:14:00.317Z,69.81
2019-03-19T08:15:00.330Z,69.92
2019-03-19T08:16:00.317Z,69.95
2019-03-19T08:17:00.288Z,69.84
2019-03-19T08:18:00.277Z,70.05
2019-03-19T08:19:00.257Z,70.36
2019-03-19T08:20:00.337Z,70.05
2019-03-19T08:21:00.259Z,70.01
2019-03-19T08:22:00.231Z,70.22
2019-03-19T08:23:00.214Z,69.71
2019-03-19T08:24:00.202Z,69.09
2019-03-19T08:25:00.347Z,69.19
2019-03-19T08:26:00.183Z,69.09
2019-03-19T08:27:00.169Z,69.19
2019-03-19T08:28:00.161Z,69.50
2019-03-19T08:29:00.166Z,68.74
2019-03-19T08:30:00.137Z,68.23
2019-03-19T08:31:00.149Z,68.02
2019-03-19T08:32:00.147Z,67.82
2019-03-19T08:33:00.136Z,68.23
2019-03-19T08:34:00.097Z,68.33
2019-03-19T08:35:00.161Z,67.09
2019-03-19T08:36:09.004Z,68.33
2019-03-19T08:37:01.057Z,68.12
2019-03-19T08:38:00.180Z,67.82
2019-03-19T08:39:00.037Z,67.88
2019-03-19T08:40:00.032Z,68.19
2019-03-19T08:41:00.081Z,67.16
2019-03-19T08:42:00.011Z,67.13
2019-03-19T08:43:00.001Z,67.13
2019-03-19T08:44:00.018Z,66.61
2019-03-19T08:44:59.977Z,66.51
2019-03-19T08:45:59.972Z,66.48
2019-03-19T08:46:59.958Z,67.10
2019-03-19T08:47:59.947Z,66.48
2019-03-19T08:48:59.959Z,66.30
2019-03-19T08:49:59.924Z,66.72
2019-03-19T08:50:59.908Z,66.93
2019-03-19T08:51:59.891Z,66.82
2019-03-19T08:52:59.880Z,66.20
2019-03-19T08:53:59.892Z,66.58
2019-03-19T08:54:59.862Z,66.27
2019-03-19T08:56:01.104Z,66.27
2019-03-19T08:56:59.858Z,67.21
2019-03-19T08:57:59.822Z,66.27
2019-03-19T08:59:05.860Z,65.55
2019-03-19T09:00:00.823Z,65.14
2019-03-19T09:00:59.789Z,65.03
2019-03-19T09:01:59.781Z,65.45
2019-03-19T09:02:59.771Z,64.83
2019-03-19T09:03:59.779Z,65.45
2019-03-19T09:04:59.798Z,65.34
2019-03-19T09:05:59.736Z,64.93
2019-03-19T09:06:59.734Z,65.14
2019-03-19T09:07:59.706Z,64.90
2019-03-19T09:08:59.697Z,64.59
2019-03-19T09:09:59.717Z,64.07
2019-03-19T09:10:59.675Z,63.67
2019-03-19T09:11:59.672Z,64.07
2019-03-19T09:12:59.702Z,64.04
2019-03-19T09:13:59.639Z,63.64
2019-03-19T09:14:59.641Z,64.04
2019-03-19T09:15:59.613Z,64.04
2019-03-19T09:16:59.631Z,63.12
2019-03-19T09:17:59.592Z,63.19
2019-03-19T09:18:59.583Z,61.44
2019-03-19T09:19:59.577Z,61.44
2019-03-19T09:20:59.566Z,61.75
2019-03-19T09:21:59.588Z,62.26
2019-03-19T09:22:59.539Z,62.81
2019-03-19T09:23:59.542Z,62.71
2019-03-19T09:24:59.515Z,62.68
2019-03-19T09:25:59.512Z,62.06
2019-03-19T09:26:59.487Z,60.79
2019-03-19T09:27:59.511Z,60.17
2019-03-19T09:28:59.472Z,59.79
2019-03-19T09:29:59.456Z,59.89
2019-03-19T09:30:59.462Z,59.89
2019-03-19T09:31:59.492Z,59.28
2019-03-19T09:32:59.426Z,59.17
2019-03-19T09:33:59.423Z,59.17
2019-03-19T09:34:59.403Z,59.38
2019-03-19T09:35:59.399Z,59.17
2019-03-19T09:36:59.377Z,59.48
2019-03-19T09:37:59.423Z,59.69
2019-03-19T09:38:59.363Z,60.41
2019-03-19T09:39:59.348Z,60.21
2019-03-19T09:40:59.331Z,59.89
2019-03-19T09:41:59.323Z,59.89
2019-03-19T09:42:59.330Z,59.17
2019-03-19T09:43:59.299Z,59.48
2019-03-19T09:44:59.298Z,59.79
2019-03-19T09:45:59.284Z,59.14
2019-03-19T09:46:59.299Z,59.58
2019-03-19T09:47:59.278Z,59.17
2019-03-19T09:48:59.244Z,58.97
2019-03-19T09:49:59.230Z,58.35
2019-03-19T09:50:59.223Z,59.38
2019-03-19T09:51:59.237Z,58.76
2019-03-19T09:52:59.204Z,57.83
2019-03-19T09:53:59.190Z,58.55
2019-03-19T09:54:59.185Z,58.42
2019-03-19T09:55:59.173Z,57.81
2019-03-19T09:56:59.216Z,57.91
2019-03-19T09:57:59.143Z,57.81
2019-03-19T09:58:59.141Z,56.80
2019-03-19T09:59:59.117Z,56.36
2019-03-19T10:00:59.106Z,56.67
2019-03-19T10:01:59.233Z,57.18
2019-03-19T10:02:59.092Z,57.18
2019-03-19T10:03:59.073Z,56.85
2019-03-19T10:04:59.079Z,56.34
2019-03-19T10:05:59.056Z,57.26
2019-03-19T10:07:05.957Z,57.34
2019-03-19T10:08:00.066Z,56.00
2019-03-19T10:08:59.047Z,56.18
2019-03-19T10:09:59.030Z,55.98
2019-03-19T10:10:58.995Z,56.21
2019-03-19T10:11:58.990Z,56.29
2019-03-19T10:12:58.984Z,55.66
2019-03-19T10:13:58.969Z,54.85
2019-03-19T10:14:58.978Z,54.51
2019-03-19T10:15:58.946Z,54.61
2019-03-19T10:16:58.955Z,53.89
2019-03-19T10:17:58.930Z,54.00
2019-03-19T10:18:58.910Z,53.58
2019-03-19T10:19:58.900Z,53.81
2019-03-19T10:20:58.914Z,53.94
2019-03-19T10:21:58.874Z,55.59
2019-03-19T10:22:58.863Z,55.59
2019-03-19T10:23:58.856Z,55.69
2019-03-19T10:24:58.844Z,56.10
2019-03-19T10:25:58.867Z,56.52
2019-03-19T10:26:58.840Z,55.80
2019-03-19T10:27:58.813Z,54.56
2019-03-19T10:28:58.799Z,54.77
2019-03-19T10:29:58.813Z,54.85
2019-03-19T10:30:58.772Z,54.33
2019-03-19T10:31:58.810Z,54.33
2019-03-19T10:32:58.751Z,54.02
2019-03-19T10:33:58.742Z,53.81
2019-03-19T10:34:58.728Z,53.92
2019-03-19T10:35:58.742Z,53.61
2019-03-19T10:36:58.708Z,52.89
2019-03-19T10:37:58.725Z,52.86
2019-03-19T10:38:58.694Z,51.86
2019-03-19T10:39:58.676Z,51.32
2019-03-19T10:40:58.668Z,51.32
2019-03-19T10:41:58.666Z,50.81
2019-03-19T10:42:58.667Z,50.09
2019-03-19T10:43:58.630Z,50.40
2019-03-19T10:44:58.617Z,49.98
2019-03-19T10:45:58.611Z,50.50
2019-03-19T10:46:58.595Z,50.50
2019-03-19T10:47:58.616Z,49.47
2019-03-19T10:48:58.579Z,49.18
2019-03-19T10:49:58.561Z,49.47
2019-03-19T10:50:58.564Z,50.11
2019-03-19T10:51:58.563Z,49.16
2019-03-19T10:52:58.563Z,50.21
2019-03-19T10:53:58.524Z,50.50
2019-03-19T10:54:58.504Z,49.47
2019-03-19T10:55:58.498Z,50.60
2019-03-19T10:56:58.486Z,49.80
2019-03-19T10:57:58.472Z,49.88
2019-03-19T10:58:58.483Z,50.52
2019-03-19T10:59:58.490Z,50.83
2019-03-19T11:00:58.438Z,50.93
2019-03-19T11:01:58.428Z,50.73
2019-03-19T11:02:58.427Z,51.37
2019-03-19T11:03:58.454Z,50.75
2019-03-19T11:04:58.475Z,50.13
2019-03-19T11:05:58.386Z,50.32
2019-03-19T11:06:58.386Z,49.80
2019-03-19T11:07:58.377Z,49.80
2019-03-19T11:08:58.392Z,50.11
2019-03-19T11:09:58.372Z,50.11
2019-03-19T11:10:58.341Z,50.52
2019-03-19T11:11:58.317Z,49.88
2019-03-19T11:12:58.424Z,49.16
2019-03-19T11:13:58.319Z,50.09
2019-03-19T11:14:58.431Z,50.19
2019-03-19T11:15:58.280Z,50.21
2019-03-19T11:16:58.257Z,50.42
2019-03-19T11:17:58.244Z,50.21
2019-03-19T11:18:58.258Z,50.09
2019-03-19T11:19:58.240Z,49.78
2019-03-19T11:20:58.233Z,49.78
2019-03-19T11:21:58.209Z,50.32
2019-03-19T11:22:58.202Z,50.40
2019-03-19T11:23:58.187Z,49.98
2019-03-19T11:24:58.177Z,50.29
2019-03-19T11:25:58.185Z,50.81
2019-03-19T11:26:58.163Z,50.83
2019-03-19T11:27:58.160Z,51.76
2019-03-19T11:28:58.205Z,51.55
2019-03-19T11:30:00.026Z,51.55
2019-03-19T11:30:58.099Z,51.24
2019-03-19T11:31:58.135Z,50.93
2019-03-19T11:32:58.086Z,50.32
2019-03-19T11:33:58.069Z,50.11
2019-03-19T11:34:58.078Z,50.40
2019-03-19T11:35:58.065Z,50.19
2019-03-19T11:36:58.301Z,49.65
2019-03-19T11:37:58.100Z,48.83
2019-03-19T11:38:58.039Z,49.55
2019-03-19T11:39:58.018Z,48.93
2019-03-19T11:40:58.013Z,49.55
2019-03-19T11:41:58.046Z,49.11
2019-03-19T11:42:57.973Z,48.81
2019-03-19T11:43:57.982Z,48.89
2019-03-19T11:44:57.954Z,48.58
2019-03-19T11:45:57.937Z,48.07
2019-03-19T11:46:57.921Z,48.56
2019-03-19T11:47:57.942Z,48.04
2019-03-19T11:48:57.906Z,47.42
2019-03-19T11:49:57.910Z,45.89
2019-03-19T11:50:57.888Z,45.48
2019-03-19T11:51:57.916Z,46.53
2019-03-19T11:52:57.892Z,46.73
2019-03-19T11:53:57.845Z,47.47
2019-03-19T11:54:57.836Z,47.88
2019-03-19T11:55:57.822Z,47.99
2019-03-19T11:56:57.819Z,48.21
2019-03-19T11:57:58.020Z,48.72
2019-03-19T11:58:57.787Z,49.16
2019-03-19T11:59:57.772Z,49.06
2019-03-19T12:00:57.773Z,49.06
2019-03-19T12:01:57.785Z,49.16
2019-03-19T12:02:57.790Z,49.78
2019-03-19T12:03:57.740Z,50.27
2019-03-19T12:04:57.730Z,49.16
2019-03-19T12:05:57.712Z,49.14
2019-03-19T12:06:57.720Z,49.44
2019-03-19T12:07:57.690Z,50.06
2019-03-19T12:08:57.701Z,49.76
2019-03-19T12:09:57.668Z,50.27
2019-03-19T12:10:57.651Z,50.06
2019-03-19T12:11:57.641Z,50.04
2019-03-19T12:12:57.625Z,49.84
2019-03-19T12:13:57.641Z,50.14
2019-03-19T12:14:57.611Z,49.94
2019-03-19T12:15:57.593Z,49.73
2019-03-19T12:16:57.586Z,49.96
2019-03-19T12:17:57.573Z,50.04
2019-03-19T12:18:57.624Z,49.11
2019-03-19T12:19:57.550Z,50.14
2019-03-19T12:20:57.549Z,48.50
2019-03-19T12:21:57.524Z,46.75
2019-03-19T12:22:57.512Z,46.96
2019-03-19T12:23:57.552Z,47.16
2019-03-19T12:24:57.562Z,46.55
2019-03-19T12:25:57.481Z,46.24
2019-03-19T12:26:57.506Z,46.15
2019-03-19T12:27:57.459Z,45.85
2019-03-19T12:28:57.492Z,45.23
2019-03-19T12:29:57.437Z,44.82
2019-03-19T12:30:57.429Z,45.13
2019-03-19T12:31:57.417Z,45.21
2019-03-19T12:32:57.407Z,44.82
2019-03-19T12:33:57.407Z,44.62
2019-03-19T12:34:57.438Z,44.92
2019-03-19T12:35:57.922Z,44.18
2019-03-19T12:36:57.354Z,44.51
2019-03-19T12:37:57.345Z,44.92
2019-03-19T12:38:57.349Z,45.23
2019-03-19T12:39:57.323Z,45.43
2019-03-19T12:40:57.340Z,44.41
2019-03-19T12:41:57.295Z,44.82
2019-03-19T12:42:57.291Z,44.20
2019-03-19T12:43:57.284Z,44.92
2019-03-19T12:44:57.268Z,45.23
2019-03-19T12:45:57.256Z,44.82
2019-03-19T12:46:57.264Z,45.03
2019-03-19T12:47:57.239Z,44.20
2019-03-19T12:48:57.225Z,44.92
2019-03-19T12:49:57.217Z,44.70
2019-03-19T12:50:57.225Z,44.82
2019-03-19T12:51:57.184Z,44.70